Time;durP1;ratioP1;P1;durP2;ratioP2;P2;SDS_P1;SDS_P2;PMS_P1;PMS_P2;Temp;Humidity;BMP_temperature;BMP_pressure;BME280_temperature;BME280_humidity;BME280_pressure;Samples;Min_cycle;Max_cycle;Signal;HPM_P1;HPM_P2
2023/01/05 00:02:38;;;;;;;80.47;72.80;;;;;;;10.23;100.00;101477.25;10378904;28;20057;-78
2023/01/05 00:07:42;;;;;;;27.23;26.13;;;;;;;10.12;100.00;101478.63;10378238;28;20057;-79
2023/01/05 00:23:28;;;;;;;34.00;32.13;;;;;;;9.93;100.00;101482.06;10458996;28;20049;-76
2023/01/05 00:28:30;;;;;;;33.47;32.08;;;;;;;10.02;100.00;101491.31;10460552;28;20487;-76
2023/01/05 00:33:33;;;;;;;38.05;35.97;;;;;;;9.99;100.00;101488.81;10460046;28;20041;-76
2023/01/05 00:38:35;;;;;;;31.75;30.45;;;;;;;9.96;100.00;101496.78;10459819;28;20045;-75
2023/01/05 00:43:37;;;;;;;48.60;45.10;;;;;;;9.91;100.00;101501.38;10442653;28;20050;-75
2023/01/05 00:48:39;;;;;;;37.67;35.30;;;;;;;9.91;100.00;101483.06;10433505;28;20110;-76
2023/01/05 00:53:42;;;;;;;40.50;38.50;;;;;;;9.92;100.00;101480.38;10459235;28;20041;-75
2023/01/05 00:58:44;;;;;;;38.40;36.28;;;;;;;9.89;100.00;101467.44;10458908;28;20115;-75
2023/01/05 01:03:46;;;;;;;50.35;45.33;;;;;;;9.87;100.00;101482.34;10459830;28;20056;-76
2023/01/05 01:08:49;;;;;;;34.72;33.08;;;;;;;9.92;100.00;101503.94;10458171;28;20060;-76
2023/01/05 01:13:51;;;;;;;42.35;39.60;;;;;;;9.95;100.00;101510.78;10456928;28;20053;-76
2023/01/05 01:18:54;;;;;;;41.45;39.47;;;;;;;9.85;100.00;101505.97;10457773;28;20061;-75
2023/01/05 01:23:56;;;;;;;34.00;32.00;;;;;;;9.83;100.00;101507.81;10457748;28;20049;-76
2023/01/05 01:28:58;;;;;;;38.45;36.47;;;;;;;9.75;100.00;101519.47;10439697;28;20049;-76
2023/01/05 01:34:00;;;;;;;36.55;34.70;;;;;;;9.73;100.00;101527.38;10450930;28;20052;-76
2023/01/05 01:39:03;;;;;;;40.72;39.00;;;;;;;9.73;100.00;101530.00;10415724;28;20164;-76
2023/01/05 01:44:43;;;;;;;39.65;36.78;;;;;;;9.74;100.00;101546.56;10467274;28;20045;-76
2023/01/05 01:49:46;;;;;;;47.03;43.67;;;;;;;9.80;100.00;101543.66;10456873;28;20056;-75
2023/01/05 01:54:50;;;;;;;33.72;32.35;;;;;;;9.81;100.00;101548.00;10454940;28;20049;-76
2023/01/05 01:59:52;;;;;;;31.30;30.00;;;;;;;9.85;100.00;101560.88;10455783;28;20550;-75
2023/01/05 02:04:59;;;;;;;33.08;31.42;;;;;;;9.86;100.00;101559.09;10456762;28;20048;-75
2023/01/05 02:10:02;;;;;;;35.30;32.92;;;;;;;9.91;100.00;101554.53;10455832;28;20047;-75
2023/01/05 02:15:26;;;;;;;49.85;46.63;;;;;;;9.95;100.00;101558.75;10455659;28;20060;-75
2023/01/05 02:21:23;;;;;;;35.67;33.80;;;;;;;9.98;100.00;101557.75;10455323;28;20056;-76
2023/01/05 02:26:44;;;;;;;35.90;34.35;;;;;;;9.95;100.00;101550.88;10382620;28;20053;-76
2023/01/05 02:32:26;;;;;;;33.10;31.50;;;;;;;9.89;100.00;101545.91;10457249;28;20049;-76
2023/01/05 02:37:53;;;;;;;35.25;33.70;;;;;;;10.02;100.00;101568.00;10455908;28;20479;-75
2023/01/05 02:42:56;;;;;;;24.90;23.70;;;;;;;10.00;100.00;101571.59;10456059;28;20404;-76
2023/01/05 02:47:58;;;;;;;26.88;25.27;;;;;;;9.98;100.00;101569.03;10439193;28;20052;-77
2023/01/05 02:53:12;;;;;;;23.83;22.88;;;;;;;9.95;100.00;101578.78;10426814;28;20060;-76
2023/01/05 02:58:24;;;;;;;30.92;28.52;;;;;;;9.93;100.00;101570.16;10443297;28;20063;-77
2023/01/05 03:04:01;;;;;;;1999.90;999.90;;;;;;;9.97;100.00;101571.72;10457448;28;20045;-77
2023/01/05 03:09:05;;;;;;;21.02;20.02;;;;;;;10.00;100.00;101566.38;10460768;28;20049;-76
2023/01/05 03:14:33;;;;;;;21.13;20.23;;;;;;;9.97;100.00;101569.09;10463297;28;20053;-76
2023/01/05 03:19:38;;;;;;;20.45;19.65;;;;;;;9.90;100.00;101586.84;10462316;28;20102;-76
2023/01/05 03:35:35;;;;;;;20.35;19.20;;;;;;;9.96;100.00;101593.59;10462146;28;20049;-77
2023/01/05 03:40:38;;;;;;;21.40;20.50;;;;;;;9.94;100.00;101593.66;10462281;28;20049;-77
2023/01/05 03:45:43;;;;;;;24.65;22.38;;;;;;;9.94;100.00;101582.34;10462938;28;20053;-77
2023/01/05 03:50:46;;;;;;;18.98;18.08;;;;;;;9.91;100.00;101593.78;10461305;28;20056;-76
2023/01/05 03:55:49;;;;;;;21.90;20.90;;;;;;;9.88;100.00;101582.59;10460466;28;20053;-76
2023/01/05 04:00:51;;;;;;;26.38;24.60;;;;;;;9.95;100.00;101579.66;10462212;28;20052;-77
2023/01/05 04:05:54;;;;;;;24.20;23.05;;;;;;;9.93;100.00;101584.09;10460277;28;20057;-76
2023/01/05 04:10:56;;;;;;;31.27;29.42;;;;;;;9.88;100.00;101598.28;10462045;28;20052;-77
2023/01/05 04:15:59;;;;;;;24.23;23.13;;;;;;;9.93;100.00;101589.31;10459254;28;20447;-75
2023/01/05 04:21:01;;;;;;;22.85;21.67;;;;;;;9.91;100.00;101593.78;10422857;28;20049;-77
2023/01/05 04:26:04;;;;;;;62.78;25.08;;;;;;;9.85;100.00;101602.72;10435729;28;20053;-76
2023/01/05 04:31:06;;;;;;;24.52;23.25;;;;;;;9.93;100.00;101604.16;10452017;28;20049;-75
2023/01/05 04:36:09;;;;;;;29.25;26.30;;;;;;;9.86;100.00;101604.41;10419242;28;20057;-75
2023/01/05 04:41:11;;;;;;;1999.90;999.90;;;;;;;10.00;100.00;101616.06;10458379;28;20106;-76
2023/01/05 04:46:13;;;;;;;1999.90;999.90;;;;;;;9.98;100.00;101608.28;10459015;28;20095;-76
2023/01/05 04:51:15;;;;;;;1999.90;999.90;;;;;;;9.99;100.00;101617.00;10459861;28;20056;-76
2023/01/05 04:56:18;;;;;;;1999.90;999.90;;;;;;;9.99;100.00;101606.53;10459723;28;20053;-76
2023/01/05 05:01:20;;;;;;;1999.90;999.90;;;;;;;9.97;100.00;101613.56;10459506;28;20052;-75
2023/01/05 05:06:23;;;;;;;1999.90;999.90;;;;;;;10.01;100.00;101623.84;10459910;28;20048;-76
2023/01/05 05:11:25;;;;;;;1999.90;999.90;;;;;;;10.06;100.00;101617.59;10458340;28;20056;-76
2023/01/05 05:16:27;;;;;;;1999.90;999.90;;;;;;;10.02;100.00;101632.56;10459066;28;20107;-75
2023/01/05 05:21:30;;;;;;;1999.90;999.90;;;;;;;9.99;100.00;101640.53;10417732;28;20108;-76
2023/01/05 05:26:32;;;;;;;1999.90;999.90;;;;;;;9.97;100.00;101645.84;10432461;28;20063;-76
2023/01/05 05:31:35;;;;;;;1999.90;999.90;;;;;;;9.93;100.00;101646.88;10458995;28;20049;-76
2023/01/05 05:36:38;;;;;;;1999.90;999.90;;;;;;;9.94;100.00;101693.06;10456182;28;20393;-70
2023/01/05 05:41:40;;;;;;;1999.90;999.90;;;;;;;9.96;100.00;101651.97;10416758;28;20054;-75
2023/01/05 05:46:42;;;;;;;1999.90;999.90;;;;;;;9.97;100.00;101681.59;10450859;28;20428;-75
2023/01/05 05:51:45;;;;;;;1999.90;999.90;;;;;;;9.90;100.00;101667.06;10455296;28;20471;-75
2023/01/05 05:56:47;;;;;;;1999.90;999.90;;;;;;;9.99;100.00;101692.88;10456600;28;20075;-75
2023/01/05 06:01:51;;;;;;;1999.90;999.90;;;;;;;10.01;100.00;101691.03;10456683;28;20045;-75
2023/01/05 06:06:54;;;;;;;1999.90;999.90;;;;;;;9.90;100.00;101699.34;10456970;28;20553;-75
2023/01/05 06:11:56;;;;;;;1502.18;752.10;;;;;;;9.97;100.00;101702.53;10457425;28;20053;-74
2023/01/05 06:16:59;;;;;;;29.10;27.90;;;;;;;9.90;100.00;101701.94;10438122;28;20049;-75
2023/01/05 06:22:01;;;;;;;32.00;29.88;;;;;;;10.00;100.00;101705.03;10455583;28;20049;-76
2023/01/05 06:27:04;;;;;;;34.38;32.22;;;;;;;9.97;100.00;101713.00;10455235;28;20488;-76
2023/01/05 06:32:06;;;;;;;29.40;27.92;;;;;;;10.04;100.00;101719.69;10456318;28;20443;-75
2023/01/05 06:37:08;;;;;;;27.30;25.92;;;;;;;9.96;100.00;101727.84;10472269;28;20094;-75
2023/01/05 06:42:11;;;;;;;30.00;28.52;;;;;;;10.09;100.00;101730.00;10468592;28;20434;-75
2023/01/05 06:47:13;;;;;;;29.02;27.83;;;;;;;9.99;100.00;101738.19;10469787;28;20060;-76
2023/01/05 06:52:16;;;;;;;35.13;32.50;;;;;;;9.92;100.00;101744.59;10469668;28;20396;-75
2023/01/05 06:57:18;;;;;;;28.80;27.70;;;;;;;10.00;100.00;101749.50;10470258;28;20103;-75
2023/01/05 07:02:20;;;;;;;31.00;29.77;;;;;;;10.00;100.00;101758.22;10470071;28;20053;-75
2023/01/05 07:07:23;;;;;;;31.83;30.45;;;;;;;9.89;100.00;101757.78;10469390;28;20045;-75
2023/01/05 07:12:25;;;;;;;29.20;28.05;;;;;;;9.88;100.00;101758.69;10468199;28;20481;-75
2023/01/05 07:17:28;;;;;;;17.65;16.95;;;;;;;9.91;100.00;101766.41;10469898;28;20064;-75
2023/01/05 07:22:30;;;;;;;20.17;18.67;;;;;;;9.89;100.00;101775.25;10469065;28;20061;-75
2023/01/05 07:27:32;;;;;;;30.67;29.02;;;;;;;9.92;100.00;101775.97;10467909;28;20075;-75
2023/01/05 07:32:35;;;;;;;25.13;22.95;;;;;;;10.01;100.00;101782.59;10469043;28;20443;-75
2023/01/05 07:37:37;;;;;;;25.23;22.92;;;;;;;9.97;100.00;101779.25;10469540;28;20048;-75
2023/01/05 07:42:39;;;;;;;25.95;22.08;;;;;;;9.95;100.00;101781.09;10468816;28;20400;-76
2023/01/05 07:47:42;;;;;;;24.50;23.23;;;;;;;9.90;100.00;101785.66;10469278;28;20049;-75
2023/01/05 07:52:46;;;;;;;1999.90;999.90;;;;;;;9.93;100.00;101792.50;10462468;28;20393;-75
2023/01/05 07:57:48;;;;;;;1999.90;999.90;;;;;;;9.94;100.00;101802.09;10460732;28;20415;-75
2023/01/05 08:02:51;;;;;;;1999.90;999.90;;;;;;;9.93;100.00;101798.59;10462250;28;20086;-75
2023/01/05 08:07:53;;;;;;;1999.90;999.90;;;;;;;9.89;100.00;101796.19;10462150;28;20049;-75
2023/01/05 08:18:24;;;;;;;1999.90;999.90;;;;;;;9.80;100.00;101813.91;10460595;28;20935;-75
2023/01/05 08:23:27;;;;;;;1999.90;999.90;;;;;;;9.85;100.00;101816.34;10460301;28;20066;-75
2023/01/05 08:28:30;;;;;;;1999.90;999.90;;;;;;;9.82;100.00;101822.56;10460210;28;20103;-75
2023/01/05 08:33:37;;;;;;;1999.90;999.90;;;;;;;9.83;100.00;101829.50;10460038;28;20136;-75
2023/01/05 08:38:47;;;;;;;1999.90;999.90;;;;;;;9.94;100.00;101844.78;10443305;28;20075;-75
2023/01/05 08:43:51;;;;;;;1999.90;999.90;;;;;;;9.89;100.00;101845.88;10460724;28;20055;-76
2023/01/05 08:48:56;;;;;;;1999.90;999.90;;;;;;;9.95;100.00;101858.69;10459400;28;20078;-75
2023/01/05 08:53:59;;;;;;;1999.90;999.90;;;;;;;10.00;100.00;101859.38;10458630;28;20484;-75
2023/01/05 08:59:01;;;;;;;1999.90;999.90;;;;;;;10.17;100.00;101863.97;10459515;28;20400;-75
2023/01/05 09:04:04;;;;;;;1999.90;999.90;;;;;;;10.01;100.00;101867.19;10459549;28;20060;-75
2023/01/05 09:09:06;;;;;;;1999.90;999.90;;;;;;;10.04;100.00;101882.75;10459143;28;20072;-75
2023/01/05 09:14:13;;;;;;;1999.90;999.90;;;;;;;10.18;100.00;101897.09;10458945;28;20525;-75
2023/01/05 09:19:16;;;;;;;1999.90;999.90;;;;;;;10.17;100.00;101905.84;10457838;28;20064;-75
2023/01/05 09:24:18;;;;;;;1999.90;999.90;;;;;;;10.12;100.00;101913.88;10457908;28;20048;-75
2023/01/05 09:29:21;;;;;;;1999.90;999.90;;;;;;;10.11;100.00;101914.78;10457147;28;20071;-76
2023/01/05 09:34:23;;;;;;;1999.90;999.90;;;;;;;10.25;100.00;101916.03;10458107;28;20045;-75
2023/01/05 09:39:26;;;;;;;1999.90;999.90;;;;;;;10.42;100.00;101926.72;10457640;28;20056;-76
2023/01/05 09:44:31;;;;;;;1999.90;999.90;;;;;;;10.32;100.00;101928.00;10458320;28;20041;-76
2023/01/05 09:49:34;;;;;;;1999.90;999.90;;;;;;;10.21;100.00;101931.00;10457077;28;20049;-75
2023/01/05 09:54:37;;;;;;;1999.90;999.90;;;;;;;10.34;100.00;101939.25;10456915;28;20047;-75
2023/01/05 09:59:49;;;;;;;1999.90;999.90;;;;;;;10.36;100.00;101945.31;10456749;28;20048;-75
2023/01/05 10:04:52;;;;;;;1999.90;999.90;;;;;;;10.48;100.00;101946.59;10439988;28;20048;-75
2023/01/05 10:09:57;;;;;;;1999.90;999.90;;;;;;;10.32;100.00;101936.72;10472880;28;20049;-75
2023/01/05 10:15:17;;;;;;;1999.90;999.90;;;;;;;10.35;100.00;101948.81;10456728;28;20125;-75
2023/01/05 10:20:34;;;;;;;1999.90;999.90;;;;;;;10.36;100.00;101951.38;10455673;28;20056;-75
2023/01/05 10:25:57;;;;;;;1999.90;999.90;;;;;;;10.56;100.00;101955.00;10455897;28;20128;-75
2023/01/05 10:31:02;;;;;;;1999.90;999.90;;;;;;;10.60;100.00;101954.81;10457003;28;20053;-75
2023/01/05 10:36:17;;;;;;;1999.90;999.90;;;;;;;10.50;100.00;101950.84;10455095;28;20053;-75
2023/01/05 10:42:01;;;;;;;1999.90;999.90;;;;;;;10.58;100.00;101961.03;10455479;28;20128;-75
2023/01/05 10:47:08;;;;;;;1999.90;999.90;;;;;;;10.68;100.00;101954.53;10456701;28;20094;-75
2023/01/05 10:52:14;;;;;;;1999.90;999.90;;;;;;;10.56;100.00;101965.50;10454771;28;20530;-75
2023/01/05 10:57:31;;;;;;;1999.90;999.90;;;;;;;10.51;100.00;101965.66;10455322;28;20102;-75
2023/01/05 11:02:49;;;;;;;1999.90;999.90;;;;;;;10.75;100.00;101965.63;10456305;28;20048;-76
2023/01/05 11:07:54;;;;;;;1999.90;999.90;;;;;;;11.03;100.00;101969.72;10454441;28;20088;-76
2023/01/05 11:13:17;;;;;;;1999.90;999.90;;;;;;;10.89;100.00;101963.31;10454383;28;20048;-75
2023/01/05 11:18:49;;;;;;;1999.90;999.90;;;;;;;11.08;100.00;101954.72;10454734;28;20056;-75
2023/01/05 11:23:58;;;;;;;1999.90;999.90;;;;;;;10.99;100.00;101955.06;10452046;28;20056;-75
2023/01/05 11:29:12;;;;;;;1999.90;999.90;;;;;;;10.97;100.00;101957.75;10463293;28;20049;-75
2023/01/05 11:34:34;;;;;;;1999.90;999.90;;;;;;;11.23;100.00;101954.06;10462347;28;20095;-75
2023/01/05 11:39:46;;;;;;;1999.90;999.90;;;;;;;10.95;100.00;101964.81;10462250;28;20048;-75
2023/01/05 11:44:56;;;;;;;1999.90;999.90;;;;;;;10.90;100.00;101962.38;10461954;28;20041;-75
2023/01/05 11:50:04;;;;;;;22.10;19.85;;;;;;;10.91;100.00;101961.47;10461774;28;20055;-76
2023/01/05 11:55:22;;;;;;;1999.90;999.90;;;;;;;10.84;100.00;101954.75;10462081;28;20045;-75
2023/01/05 12:00:27;;;;;;;1999.90;999.90;;;;;;;10.90;100.00;101956.28;10463108;28;20054;-75
2023/01/05 12:05:52;;;;;;;1999.90;999.90;;;;;;;11.12;100.00;101958.88;10461101;28;20099;-75
2023/01/05 12:11:11;;;;;;;1999.90;999.90;;;;;;;11.44;100.00;101959.31;10461035;28;20049;-75
2023/01/05 12:16:26;;;;;;;1999.90;999.90;;;;;;;11.65;100.00;101947.91;10461162;28;20061;-76
2023/01/05 12:21:52;;;;;;;1999.90;999.90;;;;;;;11.38;100.00;101944.72;10459826;28;20049;-76
2023/01/05 12:27:13;;;;;;;1999.90;999.90;;;;;;;11.23;100.00;101940.97;10460689;28;20471;-75
2023/01/05 12:38:24;;;;;;;1999.90;999.90;;;;;;;11.25;100.00;101951.38;10255161;28;20133;-76
2023/01/05 12:43:54;;;;;;;1999.90;999.90;;;;;;;11.00;100.00;101952.38;10272230;28;20447;-77
2023/01/05 12:49:02;;;;;;;1999.90;999.90;;;;;;;10.88;100.00;101951.13;10272769;28;20055;-76
2023/01/05 12:54:23;;;;;;;1999.90;999.90;;;;;;;11.12;100.00;101951.03;10272519;28;20051;-77
2023/01/05 12:59:37;;;;;;;1999.90;999.90;;;;;;;11.30;100.00;101946.78;10257598;29;20051;-77
2023/01/05 13:04:49;;;;;;;1999.90;999.90;;;;;;;11.22;100.00;101941.03;10256634;28;20396;-77
2023/01/05 13:10:19;;;;;;;1999.90;999.90;;;;;;;11.62;100.00;101948.03;10271208;28;20047;-77
2023/01/05 13:15:24;;;;;;;1999.90;999.90;;;;;;;11.34;100.00;101940.50;10256187;29;20098;-77
2023/01/05 13:20:33;;;;;;;1999.90;999.90;;;;;;;11.34;100.00;101940.50;10270988;28;20059;-77
2023/01/05 13:25:44;;;;;;;1999.90;999.90;;;;;;;11.17;100.00;101948.22;10270561;28;20487;-77
2023/01/05 13:31:24;;;;;;;1999.90;999.90;;;;;;;11.22;100.00;101947.09;10255675;29;20106;-77
2023/01/05 13:36:33;;;;;;;1999.90;999.90;;;;;;;11.30;100.00;101946.78;10270356;28;20132;-77
2023/01/05 13:41:44;;;;;;;1999.90;999.90;;;;;;;11.14;100.00;101944.78;10255180;29;20053;-76
2023/01/05 13:47:05;;;;;;;;;;;;;;;11.12;100.00;101948.41;10270953;28;20051;-77
2023/01/05 13:52:41;;;;;;;1999.90;999.90;;;;;;;11.13;100.00;101950.13;10254839;29;19922;-77
2023/01/05 13:57:44;;;;;;;1999.90;999.90;;;;;;;11.51;98.88;101945.00;10254696;29;20110;-77
2023/01/05 14:03:06;;;;;;;1999.90;999.90;;;;;;;11.58;98.40;101941.19;10255096;29;20098;-77
2023/01/05 14:08:26;;;;;;;1999.90;999.90;;;;;;;11.52;100.00;101951.97;10255110;28;20114;-76
2023/01/05 14:13:59;;;;;;;1999.90;999.90;;;;;;;11.09;100.00;101946.75;10268843;28;20059;-76
2023/01/05 14:19:20;;;;;;;1999.90;999.90;;;;;;;11.15;100.00;101937.81;10264760;28;20065;-76
2023/01/05 14:24:37;;;;;;;1999.90;999.90;;;;;;;11.28;100.00;101946.84;10254500;29;20051;-77
2023/01/05 14:29:43;;;;;;;1999.90;999.90;;;;;;;11.33;100.00;101946.63;10254580;28;20064;-76
2023/01/05 14:34:48;;;;;;;1999.90;999.90;;;;;;;11.21;100.00;101955.03;10269108;28;20059;-76
2023/01/05 14:39:54;;;;;;;1999.90;999.90;;;;;;;11.31;100.00;101953.72;10293058;28;20101;-76
2023/01/05 14:45:27;;;;;;;1999.90;999.90;;;;;;;11.25;100.00;101964.50;10278211;28;20576;-76
2023/01/05 14:50:41;;;;;;;1999.90;999.90;;;;;;;11.24;100.00;101960.16;10292850;28;20059;-76
2023/01/05 14:56:03;;;;;;;1999.90;999.90;;;;;;;11.16;100.00;101952.59;10292098;28;20050;-76
2023/01/05 15:01:17;;;;;;;1999.90;999.90;;;;;;;11.14;100.00;101959.69;10296585;28;20441;-76
2023/01/05 15:06:47;;;;;;;1999.90;999.90;;;;;;;11.10;100.00;101956.34;10301030;28;20046;-76
2023/01/05 15:12:14;;;;;;;1999.90;999.90;;;;;;;10.78;100.00;101957.63;10301564;28;20054;-76
2023/01/05 15:17:44;;;;;;;1999.90;999.90;;;;;;;10.94;100.00;101956.13;10284284;28;20062;-76
2023/01/05 15:22:49;;;;;;;1999.90;999.90;;;;;;;10.81;100.00;101949.66;10300531;28;20047;-76
2023/01/05 15:29:01;;;;;;;1999.90;999.90;;;;;;;10.91;100.00;101956.25;10300961;28;20050;-77
2023/01/05 15:34:40;;;;;;;1999.90;999.90;;;;;;;10.66;100.00;101956.34;10239823;29;20106;-76
2023/01/05 15:39:53;;;;;;;1999.90;999.90;;;;;;;10.55;100.00;101950.69;10295895;28;20051;-76
2023/01/05 15:44:56;;;;;;;1999.90;999.90;;;;;;;10.71;100.00;101951.78;10299056;28;20055;-75
2023/01/05 15:50:00;;;;;;;1999.90;999.90;;;;;;;10.80;100.00;101941.88;10299502;28;20483;-75
2023/01/05 15:55:04;;;;;;;1999.90;999.90;;;;;;;10.86;100.00;101952.94;10299933;28;20073;-76
2023/01/05 16:00:19;;;;;;;1999.90;999.90;;;;;;;10.60;100.00;101954.81;10299109;28;20081;-75
2023/01/05 16:05:24;;;;;;;1999.90;999.90;;;;;;;10.01;100.00;101963.13;10298339;28;20058;-75
2023/01/05 16:10:42;;;;;;;1999.90;999.90;;;;;;;10.52;100.00;101954.28;10298403;28;20105;-74
2023/01/05 16:15:50;;;;;;;27.23;25.95;;;;;;;10.48;100.00;101972.78;10297849;28;20053;-75
2023/01/05 16:20:53;;;;;;;24.83;22.60;;;;;;;10.20;100.00;101965.91;10297908;28;20051;-75
2023/01/05 16:25:57;;;;;;;25.77;24.77;;;;;;;10.23;100.00;101956.19;10297015;28;20097;-75
2023/01/05 16:31:12;;;;;;;27.23;26.13;;;;;;;10.19;100.00;101952.00;10298025;28;20387;-75
2023/01/05 16:36:20;;;;;;;30.45;29.25;;;;;;;10.50;100.00;101947.38;10296710;28;20130;-74
2023/01/05 16:41:26;;;;;;;30.17;28.98;;;;;;;10.29;100.00;101949.88;10297139;28;20053;-74
2023/01/05 16:46:39;;;;;;;34.63;33.22;;;;;;;10.32;100.00;101948.94;10297977;28;20047;-75
2023/01/05 16:51:42;;;;;;;30.20;29.00;;;;;;;10.30;100.00;101935.88;10296682;28;20055;-74
2023/01/05 16:57:00;;;;;;;177.88;138.60;;;;;;;10.22;100.00;101932.69;10296965;28;20512;-74
2023/01/05 17:02:03;;;;;;;32.55;31.05;;;;;;;10.19;100.00;101927.59;10296232;28;20059;-75
2023/01/05 17:07:08;;;;;;;23.63;22.73;;;;;;;10.39;100.00;101922.47;10296623;28;20051;-75
2023/01/05 17:12:12;;;;;;;25.27;24.27;;;;;;;10.30;100.00;101921.94;10297017;28;20050;-75
2023/01/05 17:17:14;;;;;;;20.80;20.00;;;;;;;10.13;100.00;101919.97;10295669;28;20055;-74
2023/01/05 17:22:17;;;;;;;21.10;20.30;;;;;;;10.13;100.00;101928.66;10295713;28;20551;-74
2023/01/05 17:27:19;;;;;;;37.53;36.03;;;;;;;10.22;100.00;101944.03;10296299;28;20061;-74
2023/01/05 17:32:22;;;;;;;53.25;51.03;;;;;;;10.09;100.00;101941.94;10295574;28;20410;-74
2023/01/05 17:37:24;;;;;;;49.63;47.58;;;;;;;10.01;100.00;101935.19;10295245;28;20487;-74
2023/01/05 17:42:41;;;;;;;40.45;38.80;;;;;;;9.98;100.00;101932.69;10296595;28;20047;-73
2023/01/05 17:47:44;;;;;;;40.38;38.72;;;;;;;9.98;100.00;101926.63;10294523;28;20054;-73
2023/01/05 17:52:46;;;;;;;59.97;57.45;;;;;;;10.08;100.00;101933.22;10295294;28;20427;-74
2023/01/05 17:57:49;;;;;;;56.80;54.40;;;;;;;10.08;100.00;101929.75;10297169;28;20054;-73
2023/01/05 18:02:52;;;;;;;49.00;47.00;;;;;;;10.13;100.00;101912.13;10295425;28;20051;-73
2023/01/05 18:07:55;;;;;;;52.10;49.67;;;;;;;10.14;100.00;101909.44;10309267;28;20051;-73
2023/01/05 18:12:57;;;;;;;47.50;45.50;;;;;;;9.97;100.00;101902.22;10294902;28;20057;-73
2023/01/05 18:18:00;;;;;;;66.70;63.88;;;;;;;10.35;100.00;101913.00;10296400;28;20050;-74
2023/01/05 18:23:02;;;;;;;1999.90;999.90;;;;;;;10.20;100.00;101901.38;10307834;28;20432;-74
2023/01/05 18:28:05;;;;;;;1999.90;999.90;;;;;;;10.10;100.00;101891.28;10294364;28;20109;-74
2023/01/05 18:33:07;;;;;;;1999.90;999.90;;;;;;;10.00;100.00;101882.94;10308674;28;20047;-74
2023/01/05 18:38:10;;;;;;;1999.90;999.90;;;;;;;10.15;100.00;101890.19;10326903;28;20101;-74
2023/01/05 18:43:12;;;;;;;1999.90;999.90;;;;;;;10.36;100.00;101882.47;10296327;28;20057;-73
2023/01/05 18:48:14;;;;;;;1999.90;999.90;;;;;;;10.46;100.00;101868.09;10293584;28;20047;-73
2023/01/05 18:53:18;;;;;;;1999.90;999.90;;;;;;;10.28;100.00;101860.94;10291477;28;20046;-73
2023/01/05 18:58:20;;;;;;;1999.90;999.90;;;;;;;10.58;100.00;101862.38;10295459;28;20125;-73
2023/01/05 19:03:22;;;;;;;1999.90;999.90;;;;;;;10.36;100.00;101851.91;10306492;28;20047;-73
2023/01/05 19:08:25;;;;;;;1999.90;999.90;;;;;;;10.49;100.00;101859.25;10292717;28;20057;-73
2023/01/05 19:13:27;;;;;;;1999.90;999.90;;;;;;;10.28;100.00;101866.19;10293435;28;20097;-73
2023/01/05 19:18:29;;;;;;;1999.90;999.90;;;;;;;10.53;100.00;101856.47;10294917;28;20058;-73
2023/01/05 19:23:31;;;;;;;1999.90;999.90;;;;;;;10.51;100.00;101868.78;10293554;28;20047;-74
2023/01/05 19:28:36;;;;;;;1999.90;999.90;;;;;;;10.69;100.00;101863.69;10293105;28;20054;-74
2023/01/05 19:33:40;;;;;;;1999.90;999.90;;;;;;;10.60;100.00;101852.69;10307207;28;20446;-74
2023/01/05 19:38:43;;;;;;;1999.90;999.90;;;;;;;10.47;100.00;101856.69;10292238;28;20057;-74
2023/01/05 19:43:53;;;;;;;1999.90;999.90;;;;;;;10.56;100.00;101868.59;10295008;28;20047;-74
2023/01/05 19:48:56;;;;;;;1999.90;999.90;;;;;;;10.69;100.00;101866.31;10298633;28;20059;-74
2023/01/05 19:54:03;;;;;;;1999.90;999.90;;;;;;;10.69;100.00;101863.69;10314525;28;20054;-75
2023/01/05 19:59:09;;;;;;;1999.90;999.90;;;;;;;10.79;100.00;101870.25;10300192;28;20391;-75
2023/01/05 20:04:12;;;;;;;1999.90;999.90;;;;;;;10.58;100.00;101858.91;10304515;28;20042;-74
2023/01/05 20:09:16;;;;;;;1999.90;999.90;;;;;;;10.55;100.00;101856.41;10298167;28;20133;-74
2023/01/05 20:14:20;;;;;;;1999.90;999.90;;;;;;;10.69;100.00;101855.84;10316343;28;20042;-74
2023/01/05 20:19:25;;;;;;;1999.90;999.90;;;;;;;10.80;100.00;101855.41;10300418;28;20046;-75
2023/01/05 20:24:29;;;;;;;1999.90;999.90;;;;;;;10.66;100.00;101850.72;10313004;28;20051;-75
2023/01/05 20:29:32;;;;;;;1999.90;999.90;;;;;;;10.80;100.00;101850.19;10312004;28;20046;-75
2023/01/05 20:34:37;;;;;;;1999.90;999.90;;;;;;;10.68;100.00;101836.66;10301220;28;20051;-75
2023/01/05 20:39:40;;;;;;;1999.90;999.90;;;;;;;10.81;100.00;101842.25;10315371;28;20059;-75
2023/01/05 20:44:45;;;;;;;1999.90;999.90;;;;;;;10.83;100.00;101834.34;10302681;28;20053;-75
2023/01/05 20:49:48;;;;;;;1999.90;999.90;;;;;;;10.68;100.00;101826.19;10280782;28;20050;-75
2023/01/05 20:54:51;;;;;;;1999.90;999.90;;;;;;;10.71;100.00;101833.09;10300424;28;20047;-75
2023/01/05 20:59:53;;;;;;;1999.90;999.90;;;;;;;10.55;100.00;101833.69;10297589;28;20412;-74
2023/01/05 21:04:56;;;;;;;1999.90;999.90;;;;;;;10.63;100.00;101829.91;10298892;28;20059;-75
2023/01/05 21:09:58;;;;;;;1999.90;999.90;;;;;;;10.52;100.00;101819.88;10297527;28;20450;-75
2023/01/05 21:15:00;;;;;;;1999.90;999.90;;;;;;;10.38;100.00;101815.19;10296183;28;20059;-75
2023/01/05 21:20:03;;;;;;;1999.90;999.90;;;;;;;10.69;100.00;101817.44;10298413;28;20054;-75
2023/01/05 21:25:06;;;;;;;1999.90;999.90;;;;;;;10.52;100.00;101825.97;10297406;28;20062;-75
2023/01/05 21:30:09;;;;;;;1999.90;999.90;;;;;;;10.38;100.00;101820.44;10312970;28;20047;-76
2023/01/05 21:35:11;;;;;;;1999.90;999.90;;;;;;;10.41;100.00;101820.31;10298542;28;20047;-75
2023/01/05 21:40:13;;;;;;;597.70;564.90;;;;;;;10.47;100.00;101813.97;10298438;28;20062;-75
2023/01/05 21:45:17;;;;;;;579.97;548.38;;;;;;;10.14;100.00;101817.00;10303707;28;20081;-75
2023/01/05 22:01:18;;;;;;;1999.90;999.90;;;;;;;10.12;100.00;101832.75;10241339;28;20090;-75
2023/01/05 22:06:21;;;;;;;1999.90;999.90;;;;;;;10.11;100.00;101825.81;10298758;28;20051;-75
2023/01/05 22:11:23;;;;;;;1999.90;999.90;;;;;;;10.31;100.00;101813.72;10295505;28;20066;-76
2023/01/05 22:16:26;;;;;;;1999.90;999.90;;;;;;;10.28;100.00;101808.59;10294814;28;20053;-75
2023/01/05 22:21:29;;;;;;;1999.90;999.90;;;;;;;10.50;100.00;101801.59;10294615;28;20054;-75
2023/01/05 22:26:32;;;;;;;1999.90;999.90;;;;;;;10.45;100.00;101792.25;10308494;28;20418;-76
2023/01/05 22:31:35;;;;;;;1999.90;999.90;;;;;;;10.33;100.00;101781.34;10294054;28;20090;-75
2023/01/05 22:36:37;;;;;;;1999.90;999.90;;;;;;;10.08;100.00;101775.38;10253675;29;20059;-76
2023/01/05 22:41:40;;;;;;;1999.90;999.90;;;;;;;10.23;100.00;101786.06;10281130;28;20055;-75
2023/01/05 22:46:42;;;;;;;1999.90;999.90;;;;;;;10.34;100.00;101775.22;10254052;29;20051;-75
2023/01/05 22:51:45;;;;;;;1999.90;999.90;;;;;;;10.36;100.00;101768.13;10284115;28;20050;-75
2023/01/05 22:56:47;;;;;;;1999.90;999.90;;;;;;;10.09;100.00;101782.31;10293827;28;20086;-75
2023/01/05 23:01:49;;;;;;;1999.90;999.90;;;;;;;10.18;100.00;101779.31;10294178;28;20054;-76
2023/01/05 23:06:52;;;;;;;1999.90;999.90;;;;;;;10.09;100.00;101761.38;10257477;28;20101;-76